This is the latest recevied weather packets stored in our database for station/object KQ7A. If no packets are shown the sender has not sent any weather packets the latest 10 day(s).
| Time | Temp. | Humidity | Pressure | Rain* | Wind** | Luminosity | Snow |
|---|---|---|---|---|---|---|---|
| 1777381590 | -0.56° C | 91% | 1019.9 hPa | 0 mm | - | 2 W/m² | - |
| 1777381286 | -0.56° C | 90% | 1019.7 hPa | 0 mm | - | 0 W/m² | - |
| 1777380983 | -1.11° C | 90% | 1019.9 hPa | 0 mm | - | 0 W/m² | - |
| 1777380680 | -0.56° C | 89% | 1019.8 hPa | 0 mm | - | 0 W/m² | - |
| 1777380375 | 0° C | 88% | 1019.6 hPa | 0 mm | - | 0 W/m² | - |
| 1777380072 | 0° C | 89% | 1019.4 hPa | 0 mm | - | 0 W/m² | - |
| 1777379768 | 0° C | 89% | 1019.3 hPa | 0 mm | - | 0 W/m² | - |
| 1777379464 | 0° C | 88% | 1019.6 hPa | 0 mm | - | 0 W/m² | - |
| 1777379159 | 0° C | 88% | 1019.3 hPa | 0 mm | - | 0 W/m² | - |
| 1777378855 | 0° C | 88% | 1019.2 hPa | 0 mm | - | 0 W/m² | - |
| 1777378550 | 0° C | 87% | 1019.4 hPa | 0 mm | - | 0 W/m² | - |
| 1777378247 | 0° C | 88% | 1019.3 hPa | 0 mm | - | 0 W/m² | - |
| 1777377945 | 0° C | 87% | 1019.2 hPa | 0 mm | - | 0 W/m² | - |
| 1777377645 | 0.56° C | 86% | 1019.2 hPa | 0 mm | - | 0 W/m² | - |
| 1777377340 | 0.56° C | 85% | 1019.2 hPa | 0 mm | - | 0 W/m² | - |
| 1777377038 | 1.11° C | 83% | 1019.2 hPa | 0 mm | - | 0 W/m² | - |
| 1777376735 | 1.11° C | 83% | 1019.1 hPa | 0 mm | - | 0 W/m² | - |
| 1777376432 | 1.11° C | 81% | 1019 hPa | 0 mm | - | 0 W/m² | - |
| 1777376127 | 1.67° C | 79% | 1019 hPa | 0 mm | - | 0 W/m² | - |
| 1777375827 | 1.11° C | 82% | 1019.3 hPa | 0 mm | - | 0 W/m² | - |
| 1777375522 | 1.11° C | 82% | 1019.3 hPa | 0 mm | - | 0 W/m² | - |
| 1777375218 | 1.11° C | 83% | 1019 hPa | 0 mm | - | 0 W/m² | - |
| 1777374914 | 1.11° C | 84% | 1019.1 hPa | 0 mm | - | 0 W/m² | - |
| 1777374610 | 0.56° C | 86% | 1019.1 hPa | 0 mm | - | 0 W/m² | - |
| 1777374306 | 0.56° C | 85% | 1019.1 hPa | 0 mm | - | 0 W/m² | - |
* Rain latest hour (hover to see other rain measurements)
** Current wind speed in m/s (hover to see current wind gust speed)